createdAt,value
2023-06-25T00:00:45.636Z,73.50
2023-06-25T00:03:16.640Z,73.50
2023-06-25T00:05:46.329Z,73.50
2023-06-25T00:08:15.865Z,73.60
2023-06-25T00:10:45.467Z,73.90
2023-06-25T00:13:15.152Z,73.70
2023-06-25T00:15:44.721Z,73.70
2023-06-25T00:18:15.682Z,73.70
2023-06-25T00:20:47.554Z,73.70
2023-06-25T00:23:18.158Z,73.70
2023-06-25T00:25:47.614Z,73.80
2023-06-25T00:28:17.094Z,74.10
2023-06-25T00:30:56.062Z,74.10
2023-06-25T00:33:27.009Z,74.40
2023-06-25T00:36:08.335Z,74.40
2023-06-25T00:38:40.320Z,74.80
2023-06-25T00:41:12.117Z,74.40
2023-06-25T00:43:43.687Z,74.20
2023-06-25T00:46:17.626Z,74.20
2023-06-25T00:48:49.312Z,74.50
2023-06-25T00:51:28.438Z,74.50
2023-06-25T00:53:58.234Z,74.60
2023-06-25T00:56:30.563Z,74.50
2023-06-25T00:59:03.293Z,74.40
2023-06-25T01:01:41.061Z,74.80
2023-06-25T01:04:20.977Z,74.80
2023-06-25T01:06:53.658Z,75.00
2023-06-25T01:09:23.573Z,74.80
2023-06-25T01:12:03.745Z,74.80
2023-06-25T01:14:34.899Z,75.20
2023-06-25T01:17:06.815Z,74.60
2023-06-25T01:19:37.951Z,75.10
2023-06-25T01:22:10.241Z,74.90
2023-06-25T01:24:43.683Z,74.90
2023-06-25T01:27:14.334Z,75.10
2023-06-25T01:29:45.513Z,74.90
2023-06-25T01:32:15.087Z,74.90
2023-06-25T01:34:44.936Z,75.00
2023-06-25T01:37:19.567Z,75.00
2023-06-25T01:39:53.436Z,75.20
2023-06-25T01:42:23.132Z,75.40
2023-06-25T01:44:52.650Z,75.30
2023-06-25T01:47:22.285Z,75.30
2023-06-25T01:49:51.828Z,75.40
2023-06-25T01:52:21.533Z,75.60
2023-06-25T01:54:52.458Z,75.70
2023-06-25T01:57:22.491Z,75.60
2023-06-25T01:59:51.996Z,75.50
2023-06-25T02:02:21.674Z,75.50
2023-06-25T02:04:51.217Z,75.60
2023-06-25T02:07:20.745Z,75.70
2023-06-25T02:09:51.578Z,75.90
2023-06-25T02:12:21.188Z,76.00
2023-06-25T02:14:50.760Z,76.10
2023-06-25T02:17:20.306Z,76.10
2023-06-25T02:19:49.918Z,76.00
2023-06-25T02:22:19.439Z,76.00
2023-06-25T02:24:49.226Z,76.00
2023-06-25T02:27:20.755Z,76.00
2023-06-25T02:29:50.224Z,76.00
2023-06-25T02:32:19.668Z,76.00
2023-06-25T02:34:50.313Z,76.10
2023-06-25T02:37:19.771Z,76.00
2023-06-25T02:39:49.344Z,76.00
2023-06-25T02:42:20.459Z,76.10
2023-06-25T02:44:49.940Z,76.20
2023-06-25T02:47:19.850Z,76.20
2023-06-25T02:49:49.639Z,76.20
2023-06-25T02:52:20.228Z,76.10
2023-06-25T02:54:49.837Z,76.20
2023-06-25T02:57:24.347Z,76.40
2023-06-25T02:59:54.717Z,76.50
2023-06-25T03:02:24.313Z,76.50
2023-06-25T03:04:56.713Z,76.50
2023-06-25T03:07:26.485Z,76.40
2023-06-25T03:09:58.419Z,76.40
2023-06-25T03:12:29.516Z,76.40
2023-06-25T03:14:59.644Z,76.40
2023-06-25T03:17:29.639Z,76.40
2023-06-25T03:19:59.853Z,76.60
2023-06-25T03:22:29.586Z,76.70
2023-06-25T03:24:59.480Z,76.90
2023-06-25T03:27:32.820Z,76.90
2023-06-25T03:30:06.092Z,77.10
2023-06-25T03:32:36.059Z,76.90
2023-06-25T03:35:08.582Z,76.90
2023-06-25T03:37:39.153Z,76.90
2023-06-25T03:40:10.773Z,76.80
2023-06-25T03:42:41.769Z,76.90
2023-06-25T03:45:14.405Z,76.90
2023-06-25T03:47:44.737Z,77.20
2023-06-25T03:50:14.697Z,77.10
2023-06-25T03:52:44.373Z,77.00
2023-06-25T03:55:14.189Z,77.20
2023-06-25T03:57:45.382Z,77.20
2023-06-25T04:00:16.021Z,77.50
2023-06-25T04:02:45.475Z,77.50
2023-06-25T04:05:16.299Z,77.40
2023-06-25T04:07:45.750Z,77.40
2023-06-25T04:10:15.680Z,77.50
2023-06-25T04:12:46.137Z,78.40
2023-06-25T04:15:15.585Z,77.80
2023-06-25T04:17:44.653Z,77.60
2023-06-25T04:20:13.730Z,77.80
2023-06-25T04:22:42.746Z,77.80
2023-06-25T04:25:11.931Z,77.80
2023-06-25T04:27:43.201Z,77.90
2023-06-25T04:30:17.673Z,77.80
2023-06-25T04:32:50.912Z,78.00
2023-06-25T04:35:23.280Z,77.90
2023-06-25T04:37:53.429Z,78.00
2023-06-25T04:40:22.809Z,78.00
2023-06-25T04:42:53.932Z,78.00
2023-06-25T04:45:27.246Z,78.10
2023-06-25T04:47:56.649Z,78.30
2023-06-25T04:50:28.634Z,78.40
2023-06-25T04:52:59.334Z,78.50
2023-06-25T04:55:28.335Z,78.60
2023-06-25T04:57:57.999Z,78.70
2023-06-25T05:00:28.357Z,78.80
2023-06-25T05:02:57.430Z,78.90
2023-06-25T05:05:26.486Z,78.80
2023-06-25T05:07:55.470Z,78.90
2023-06-25T05:10:24.506Z,78.90
2023-06-25T05:12:53.539Z,79.00
2023-06-25T05:15:22.584Z,79.10
2023-06-25T05:17:53.017Z,79.10
2023-06-25T05:20:22.356Z,79.40
2023-06-25T05:22:51.389Z,79.40
2023-06-25T05:25:20.432Z,79.40
2023-06-25T05:27:49.462Z,79.50
2023-06-25T05:30:18.433Z,79.60
2023-06-25T05:32:49.757Z,79.50
2023-06-25T05:35:20.167Z,79.60
2023-06-25T05:37:49.164Z,79.70
2023-06-25T05:40:18.353Z,79.80
2023-06-25T05:42:47.391Z,79.80
2023-06-25T05:45:19.219Z,79.80
2023-06-25T05:47:48.386Z,79.90
2023-06-25T05:50:19.155Z,80.00
2023-06-25T05:52:49.082Z,80.20
2023-06-25T05:55:18.147Z,80.40
2023-06-25T05:57:47.129Z,80.40
2023-06-25T06:00:16.948Z,80.50
2023-06-25T06:02:46.859Z,80.60
2023-06-25T06:05:15.919Z,80.50
2023-06-25T06:07:46.274Z,80.60
2023-06-25T06:10:18.198Z,80.70
2023-06-25T06:12:47.294Z,80.90
2023-06-25T06:15:17.299Z,80.80
2023-06-25T06:17:46.458Z,80.80
2023-06-25T06:20:15.496Z,80.90
2023-06-25T06:22:49.009Z,80.90
2023-06-25T06:25:18.427Z,81.00
2023-06-25T06:27:47.534Z,81.00
2023-06-25T06:30:16.752Z,81.00
2023-06-25T06:32:45.947Z,80.90
2023-06-25T06:35:15.133Z,80.90
2023-06-25T06:37:44.085Z,81.00
2023-06-25T06:40:14.775Z,81.10
2023-06-25T06:42:43.776Z,81.10
2023-06-25T06:45:13.517Z,81.70
2023-06-25T06:47:42.547Z,81.70
2023-06-25T06:50:12.132Z,81.00
2023-06-25T06:52:44.588Z,81.00
2023-06-25T06:55:14.971Z,81.80
2023-06-25T06:57:44.017Z,80.80
2023-06-25T07:00:14.594Z,81.70
2023-06-25T07:02:43.658Z,81.00
2023-06-25T07:05:13.787Z,81.10
2023-06-25T07:07:43.030Z,81.10
2023-06-25T07:10:14.147Z,81.00
2023-06-25T07:12:43.422Z,81.00
2023-06-25T07:15:15.504Z,80.80
2023-06-25T07:17:44.894Z,80.80
2023-06-25T07:20:14.688Z,80.70
2023-06-25T07:22:44.969Z,80.70
2023-06-25T07:25:15.350Z,80.60
2023-06-25T07:27:44.413Z,80.70
2023-06-25T07:30:14.547Z,80.60
2023-06-25T07:32:43.713Z,80.70
2023-06-25T07:35:12.880Z,80.70
2023-06-25T07:37:42.545Z,80.60
2023-06-25T07:40:12.330Z,80.70
2023-06-25T07:42:42.810Z,80.70
2023-06-25T07:45:12.740Z,80.70
2023-06-25T07:47:42.051Z,80.60
2023-06-25T07:50:11.609Z,80.50
2023-06-25T07:52:40.704Z,80.60
2023-06-25T07:55:10.050Z,80.60
2023-06-25T07:57:39.098Z,80.50
2023-06-25T08:00:11.596Z,80.40
2023-06-25T08:02:43.367Z,80.40
2023-06-25T08:05:15.702Z,81.30
2023-06-25T08:07:44.822Z,80.30
2023-06-25T08:10:13.835Z,80.00
2023-06-25T08:12:43.059Z,80.20
2023-06-25T08:15:13.619Z,79.90
2023-06-25T08:17:42.768Z,79.80
2023-06-25T08:20:12.696Z,79.80
2023-06-25T08:22:44.698Z,79.80
2023-06-25T08:25:24.569Z,80.10
2023-06-25T08:27:53.631Z,80.20
2023-06-25T08:30:24.445Z,79.30
2023-06-25T08:32:56.271Z,78.80
2023-06-25T08:35:25.351Z,80.00
2023-06-25T08:37:54.431Z,80.20
2023-06-25T08:40:25.002Z,80.20
2023-06-25T08:42:54.041Z,78.50
2023-06-25T08:45:24.536Z,79.40
2023-06-25T08:47:57.859Z,78.10
2023-06-25T08:50:27.483Z,78.00
2023-06-25T08:52:57.115Z,77.60
2023-06-25T08:55:28.943Z,77.50
2023-06-25T08:57:57.997Z,77.50
2023-06-25T09:00:31.242Z,77.20
2023-06-25T09:03:00.789Z,76.60
2023-06-25T09:05:30.262Z,77.60
2023-06-25T09:07:59.346Z,76.80
2023-06-25T09:10:32.612Z,77.80
2023-06-25T09:13:04.076Z,77.20
2023-06-25T09:15:34.731Z,75.90
2023-06-25T09:18:04.783Z,75.20
2023-06-25T09:20:33.876Z,75.90
2023-06-25T09:23:05.414Z,76.20
2023-06-25T09:25:35.644Z,76.20
2023-06-25T09:28:06.186Z,75.70
2023-06-25T09:30:38.454Z,75.60
2023-06-25T09:33:11.198Z,76.30
2023-06-25T09:35:43.350Z,75.80
2023-06-25T09:38:12.525Z,75.20
2023-06-25T09:40:41.655Z,75.30
2023-06-25T09:43:11.382Z,75.30
2023-06-25T09:45:42.815Z,75.10
2023-06-25T09:48:13.705Z,75.10
2023-06-25T09:50:47.792Z,75.20
2023-06-25T09:53:21.322Z,75.30
2023-06-25T09:55:51.135Z,75.10
2023-06-25T09:58:21.968Z,74.90
2023-06-25T10:00:53.254Z,74.40
2023-06-25T10:03:23.291Z,74.60
2023-06-25T10:05:52.981Z,74.50
2023-06-25T10:08:22.353Z,73.70
2023-06-25T10:10:59.906Z,73.90
2023-06-25T10:13:29.460Z,72.40
2023-06-25T10:16:05.288Z,72.60
2023-06-25T10:18:43.883Z,72.10
2023-06-25T10:21:21.245Z,72.50
2023-06-25T10:24:00.091Z,72.10
2023-06-25T10:26:31.398Z,72.30
2023-06-25T10:29:03.304Z,72.90
2023-06-25T10:31:40.941Z,72.50
2023-06-25T10:34:11.889Z,71.40
2023-06-25T10:36:52.093Z,72.50
2023-06-25T10:39:21.695Z,72.20
2023-06-25T10:41:51.111Z,72.50
2023-06-25T10:44:30.099Z,71.90
2023-06-25T10:47:06.605Z,71.20
2023-06-25T10:49:36.933Z,71.50
2023-06-25T10:52:08.508Z,71.40
2023-06-25T10:54:38.597Z,70.90
2023-06-25T10:57:09.824Z,71.50
2023-06-25T10:59:40.178Z,71.00
2023-06-25T11:02:22.858Z,70.40
2023-06-25T11:04:54.071Z,69.40
2023-06-25T11:07:25.040Z,69.50
2023-06-25T11:09:57.436Z,70.80
2023-06-25T11:12:27.126Z,70.60
2023-06-25T11:14:59.208Z,71.00
2023-06-25T11:17:30.631Z,70.10
2023-06-25T11:20:00.097Z,69.70
2023-06-25T11:22:30.080Z,68.60
2023-06-25T11:25:00.208Z,68.10
2023-06-25T11:27:31.391Z,68.40
2023-06-25T11:30:04.557Z,67.80
2023-06-25T11:32:38.394Z,68.90
2023-06-25T11:35:13.154Z,68.40
2023-06-25T11:37:46.866Z,69.30
2023-06-25T11:40:27.478Z,68.40
2023-06-25T11:42:57.715Z,68.70
2023-06-25T11:45:27.389Z,68.50
2023-06-25T11:47:58.348Z,68.60
2023-06-25T11:50:29.101Z,69.00
2023-06-25T11:52:58.904Z,69.30
2023-06-25T11:55:28.628Z,68.10
2023-06-25T11:57:58.216Z,67.80
2023-06-25T12:00:27.738Z,67.70
2023-06-25T12:02:58.726Z,67.40
2023-06-25T12:05:28.507Z,68.00
2023-06-25T12:07:58.269Z,68.40
2023-06-25T12:10:28.582Z,68.60
2023-06-25T12:12:58.032Z,68.50
2023-06-25T12:15:27.439Z,67.80
2023-06-25T12:17:58.459Z,67.60
2023-06-25T12:20:27.888Z,67.40
2023-06-25T12:22:57.321Z,67.40
2023-06-25T12:25:26.877Z,66.90
2023-06-25T12:27:56.340Z,66.90
2023-06-25T12:30:26.441Z,67.30
2023-06-25T12:32:59.641Z,66.80
2023-06-25T12:35:30.820Z,66.90
2023-06-25T12:38:00.348Z,66.80
2023-06-25T12:40:30.157Z,67.00
2023-06-25T12:43:00.910Z,65.90
2023-06-25T12:45:30.383Z,64.70
2023-06-25T12:48:01.270Z,65.10
2023-06-25T12:50:30.803Z,65.30
2023-06-25T12:53:00.194Z,66.00
2023-06-25T12:55:29.625Z,66.20
2023-06-25T12:57:59.218Z,66.20
2023-06-25T13:00:41.093Z,66.00
2023-06-25T13:03:19.607Z,65.50
2023-06-25T13:05:49.373Z,66.00
2023-06-25T13:08:18.992Z,67.00
2023-06-25T13:10:48.649Z,66.40
2023-06-25T13:13:18.230Z,66.10
2023-06-25T13:15:47.721Z,66.40
2023-06-25T13:18:18.715Z,66.10
2023-06-25T13:20:48.153Z,65.60
2023-06-25T13:23:17.853Z,66.00
2023-06-25T13:25:47.340Z,66.00
2023-06-25T13:28:16.936Z,66.60
2023-06-25T13:30:47.595Z,65.80
2023-06-25T13:33:18.590Z,65.40
2023-06-25T13:35:48.305Z,66.00
2023-06-25T13:38:18.487Z,66.20
2023-06-25T13:40:49.177Z,66.10
2023-06-25T13:43:21.999Z,66.60
2023-06-25T13:45:55.538Z,66.10
2023-06-25T13:48:26.806Z,66.20
2023-06-25T13:50:57.162Z,65.80
2023-06-25T13:53:27.955Z,66.40
2023-06-25T13:55:58.337Z,65.70
2023-06-25T13:58:34.431Z,66.40
2023-06-25T14:01:05.136Z,66.20
2023-06-25T14:03:36.389Z,65.70
2023-06-25T14:06:06.291Z,65.10
2023-06-25T14:08:36.906Z,65.10
2023-06-25T14:11:06.868Z,65.50
2023-06-25T14:13:37.282Z,65.50
2023-06-25T14:16:15.580Z,66.50
2023-06-25T14:18:47.311Z,65.20
2023-06-25T14:21:19.564Z,64.50
2023-06-25T14:23:50.532Z,64.70
2023-06-25T14:26:20.526Z,64.80
2023-06-25T14:29:06.269Z,65.20
2023-06-25T14:31:39.783Z,64.90
2023-06-25T14:34:13.373Z,65.40
2023-06-25T14:36:42.999Z,65.00
2023-06-25T14:39:12.948Z,64.40
2023-06-25T14:41:45.611Z,64.70
2023-06-25T14:44:15.363Z,65.00
2023-06-25T14:46:44.927Z,64.60
2023-06-25T14:49:16.088Z,64.70
2023-06-25T14:51:45.731Z,64.50
2023-06-25T14:54:15.687Z,64.80
2023-06-25T14:57:24.280Z,65.70
2023-06-25T15:00:05.977Z,65.50
2023-06-25T15:03:04.338Z,63.90
2023-06-25T15:05:36.053Z,65.40
2023-06-25T15:08:06.419Z,64.70
2023-06-25T15:10:42.426Z,64.70
2023-06-25T15:13:17.692Z,65.30
2023-06-25T15:15:52.175Z,65.70
2023-06-25T15:18:22.269Z,66.00
2023-06-25T15:20:54.003Z,65.20
2023-06-25T15:24:04.417Z,64.90
2023-06-25T15:26:43.580Z,65.10
2023-06-25T15:29:23.498Z,65.00
2023-06-25T15:32:00.388Z,65.20
2023-06-25T15:34:40.910Z,65.30
2023-06-25T15:37:12.137Z,65.30
2023-06-25T15:39:41.829Z,64.50
2023-06-25T15:42:11.554Z,65.20
2023-06-25T15:44:41.401Z,64.90
2023-06-25T15:47:12.311Z,64.60
2023-06-25T15:49:46.520Z,64.80
2023-06-25T15:52:17.698Z,64.50
2023-06-25T15:54:48.072Z,64.20
2023-06-25T15:57:17.718Z,64.10
2023-06-25T15:59:47.539Z,64.60
2023-06-25T16:02:17.502Z,65.00
2023-06-25T16:05:06.393Z,64.70
2023-06-25T16:07:43.158Z,65.40
2023-06-25T16:10:12.965Z,65.30
2023-06-25T16:12:47.137Z,64.10
2023-06-25T16:15:17.050Z,65.50
2023-06-25T16:17:59.698Z,64.40
2023-06-25T16:21:28.624Z,64.50
2023-06-25T16:24:13.664Z,65.40
2023-06-25T16:26:51.042Z,64.60
2023-06-25T16:29:21.543Z,64.50
2023-06-25T16:31:59.246Z,64.60
2023-06-25T16:34:56.438Z,64.70
2023-06-25T16:38:01.394Z,65.00
2023-06-25T16:40:40.801Z,65.30
2023-06-25T16:43:13.664Z,64.90
2023-06-25T16:45:59.496Z,64.20
2023-06-25T16:48:31.358Z,64.60
2023-06-25T16:51:10.185Z,64.50
2023-06-25T16:53:54.756Z,64.50
2023-06-25T16:56:27.991Z,65.20
2023-06-25T16:59:00.860Z,64.40
2023-06-25T17:01:37.664Z,64.50
2023-06-25T17:04:08.099Z,64.70
2023-06-25T17:06:43.647Z,64.80
2023-06-25T17:09:29.885Z,64.70
2023-06-25T17:12:03.603Z,65.20
2023-06-25T17:14:33.567Z,64.90
2023-06-25T17:17:08.882Z,65.30
2023-06-25T17:19:38.756Z,65.30
2023-06-25T17:22:12.765Z,64.90
2023-06-25T17:24:54.943Z,64.40
2023-06-25T17:27:32.834Z,64.80
2023-06-25T17:30:16.435Z,64.70
2023-06-25T17:32:46.160Z,65.50
2023-06-25T17:35:16.041Z,65.00
2023-06-25T17:37:45.901Z,64.70
2023-06-25T17:40:19.939Z,65.20
2023-06-25T17:42:51.154Z,65.10
2023-06-25T17:45:22.446Z,66.70
2023-06-25T17:47:55.082Z,67.30
2023-06-25T17:50:28.324Z,67.20
2023-06-25T17:52:58.560Z,68.30
2023-06-25T17:55:36.239Z,68.60
2023-06-25T17:58:07.615Z,69.30
2023-06-25T18:00:39.344Z,69.70
2023-06-25T18:03:09.237Z,69.80
2023-06-25T18:05:39.102Z,69.90
2023-06-25T18:08:08.940Z,70.10
2023-06-25T18:10:41.240Z,70.40
2023-06-25T18:13:16.282Z,70.70
2023-06-25T18:15:45.886Z,71.80
2023-06-25T18:18:19.684Z,71.10
2023-06-25T18:20:49.654Z,72.10
2023-06-25T18:23:19.131Z,71.80
2023-06-25T18:25:49.364Z,71.50
2023-06-25T18:28:20.374Z,72.10
2023-06-25T18:30:49.813Z,72.80
2023-06-25T18:33:19.617Z,72.80
2023-06-25T18:35:49.492Z,73.30
2023-06-25T18:38:19.167Z,73.30
2023-06-25T18:40:48.660Z,73.50
2023-06-25T18:43:19.602Z,73.90
2023-06-25T18:45:49.036Z,74.50
2023-06-25T18:48:18.602Z,74.70
2023-06-25T18:50:48.107Z,75.00
2023-06-25T18:53:17.693Z,75.40
2023-06-25T18:55:47.145Z,76.40
2023-06-25T18:58:17.125Z,75.70
2023-06-25T19:00:48.048Z,76.00
2023-06-25T19:03:17.835Z,76.10
2023-06-25T19:05:52.106Z,75.80
2023-06-25T19:08:22.012Z,75.70
2023-06-25T19:10:51.573Z,75.70
2023-06-25T19:13:21.158Z,76.50
2023-06-25T19:15:53.649Z,75.90
2023-06-25T19:18:23.282Z,75.90
2023-06-25T19:20:54.076Z,75.50
2023-06-25T19:23:29.923Z,76.10
2023-06-25T19:26:03.557Z,75.90
2023-06-25T19:28:33.065Z,76.40
2023-06-25T19:31:04.065Z,75.70
2023-06-25T19:33:33.835Z,76.30
2023-06-25T19:36:03.756Z,76.10
2023-06-25T19:38:33.826Z,76.80
2023-06-25T19:41:03.643Z,76.90
2023-06-25T19:43:33.266Z,77.00
2023-06-25T19:46:07.236Z,76.70
2023-06-25T19:48:37.005Z,78.00
2023-06-25T19:51:09.706Z,77.40
2023-06-25T19:53:39.356Z,77.40
2023-06-25T19:56:13.593Z,77.10
2023-06-25T19:58:46.355Z,77.70
2023-06-25T20:01:17.303Z,77.50
2023-06-25T20:03:46.953Z,78.50
2023-06-25T20:06:16.325Z,78.40
2023-06-25T20:08:45.878Z,78.40
2023-06-25T20:11:16.571Z,78.60
2023-06-25T20:13:46.507Z,78.60
2023-06-25T20:16:20.606Z,78.60
2023-06-25T20:18:50.925Z,79.40
2023-06-25T20:21:23.647Z,79.00
2023-06-25T20:24:18.504Z,79.00
2023-06-25T20:26:51.343Z,79.90
2023-06-25T20:29:23.654Z,78.40
2023-06-25T20:32:03.684Z,78.40
2023-06-25T20:34:33.389Z,79.40
2023-06-25T20:37:03.055Z,79.00
2023-06-25T20:39:34.253Z,79.40
2023-06-25T20:42:04.059Z,79.20
2023-06-25T20:44:34.772Z,79.10
2023-06-25T20:47:10.587Z,79.30
2023-06-25T20:49:40.134Z,80.30
2023-06-25T20:52:10.141Z,79.60
2023-06-25T20:54:39.725Z,79.60
2023-06-25T20:57:09.986Z,79.70
2023-06-25T20:59:39.630Z,79.50
2023-06-25T21:02:10.558Z,79.70
2023-06-25T21:04:40.221Z,80.10
2023-06-25T21:07:09.880Z,79.80
2023-06-25T21:09:39.476Z,79.70
2023-06-25T21:12:09.751Z,79.90
2023-06-25T21:14:39.959Z,80.00
2023-06-25T21:17:11.030Z,79.60
2023-06-25T21:19:40.641Z,79.70
2023-06-25T21:22:11.164Z,79.70
2023-06-25T21:24:41.027Z,79.50
2023-06-25T21:27:10.714Z,79.40
2023-06-25T21:29:40.260Z,79.30
2023-06-25T21:32:12.322Z,79.70
2023-06-25T21:34:42.254Z,79.90
2023-06-25T21:37:11.952Z,79.80
2023-06-25T21:39:43.125Z,80.00
2023-06-25T21:42:12.793Z,79.80
2023-06-25T21:44:43.226Z,80.30
2023-06-25T21:47:14.879Z,80.50
2023-06-25T21:49:45.026Z,80.40
2023-06-25T21:52:18.935Z,80.70
2023-06-25T21:54:49.114Z,80.70
2023-06-25T21:57:19.213Z,80.60
2023-06-25T21:59:48.956Z,80.70
2023-06-25T22:02:21.037Z,81.00
2023-06-25T22:04:52.005Z,81.40
2023-06-25T22:07:21.793Z,81.20
2023-06-25T22:09:51.416Z,80.50
2023-06-25T22:12:21.188Z,81.30
2023-06-25T22:14:50.681Z,81.30
2023-06-25T22:17:25.028Z,81.40
2023-06-25T22:19:55.686Z,81.70
2023-06-25T22:22:25.148Z,81.60
2023-06-25T22:24:54.689Z,81.40
2023-06-25T22:27:25.655Z,81.80
2023-06-25T22:29:55.233Z,81.60
2023-06-25T22:32:26.313Z,81.50
2023-06-25T22:34:55.941Z,81.90
2023-06-25T22:37:25.500Z,81.60
2023-06-25T22:39:54.993Z,81.70
2023-06-25T22:42:24.566Z,81.80
2023-06-25T22:44:54.212Z,81.80
2023-06-25T22:47:25.269Z,81.90
2023-06-25T22:49:54.840Z,82.00
2023-06-25T22:52:24.379Z,82.10
2023-06-25T22:54:53.897Z,82.20
2023-06-25T22:57:23.622Z,82.30
2023-06-25T22:59:53.340Z,82.30
2023-06-25T23:02:22.883Z,82.40
2023-06-25T23:04:57.449Z,82.30
2023-06-25T23:07:27.164Z,82.50
2023-06-25T23:09:56.720Z,82.40
2023-06-25T23:12:26.262Z,82.40
2023-06-25T23:14:55.777Z,82.50
2023-06-25T23:17:25.310Z,82.40
2023-06-25T23:19:56.224Z,83.20
2023-06-25T23:22:28.536Z,82.60
2023-06-25T23:25:03.261Z,82.60
2023-06-25T23:27:37.716Z,82.60
2023-06-25T23:30:08.402Z,82.50
2023-06-25T23:32:37.891Z,82.70
2023-06-25T23:35:12.030Z,82.70
2023-06-25T23:37:46.614Z,83.10
2023-06-25T23:40:16.161Z,82.70
2023-06-25T23:42:45.574Z,82.60
2023-06-25T23:45:15.177Z,82.70
2023-06-25T23:47:46.016Z,82.70
2023-06-25T23:50:19.455Z,82.70
2023-06-25T23:52:48.958Z,82.90
2023-06-25T23:55:18.909Z,82.90
2023-06-25T23:57:48.892Z,82.80
